Time;durP1;ratioP1;P1;durP2;ratioP2;P2;SDS_P1;SDS_P2;PMS_P1;PMS_P2;Temp;Humidity;BMP_temperature;BMP_pressure;BME280_temperature;BME280_humidity;BME280_pressure;Samples;Min_cycle;Max_cycle;Signal;HPM_P1;HPM_P2
2023/12/15 00:00:39;;;;;;;21.10;11.90;;;;;;;;;;5075906;28;20052;-73
2023/12/15 00:20:13;;;;;;;20.60;12.80;;;;;;;;;;5456236;23;20049;-80
2023/12/15 00:22:40;;;;;;;28.60;13.80;;;;;;;;;;5854009;23;20021;-78
2023/12/15 00:25:06;;;;;;;26.40;13.15;;;;;;;;;;5005447;28;20407;-80
2023/12/15 00:27:32;;;;;;;25.92;12.60;;;;;;;;;;4998822;28;20060;-79
2023/12/15 00:29:58;;;;;;;22.63;13.27;;;;;;;;;;5017590;28;20037;-80
2023/12/15 00:32:24;;;;;;;26.45;13.02;;;;;;;;;;4995753;28;20459;-79
2023/12/15 01:00:57;;;;;;;25.08;13.30;;;;;;;;;;5185106;23;20416;-81
2023/12/15 01:03:24;;;;;;;29.67;14.77;;;;;;;;;;4932729;29;20566;-79
2023/12/15 01:05:50;;;;;;;21.52;13.48;;;;;;;;;;4937243;28;20066;-79
2023/12/15 01:08:16;;;;;;;31.23;15.18;;;;;;;;;;4937197;29;20035;-79
2023/12/15 01:10:43;;;;;;;23.58;13.40;;;;;;;;;;4937182;29;20504;-79
2023/12/15 01:13:09;;;;;;;22.98;13.77;;;;;;;;;;4906027;29;20395;-79
2023/12/15 01:15:35;;;;;;;22.05;12.98;;;;;;;;;;4920993;29;20043;-79
2023/12/15 01:18:01;;;;;;;21.63;13.48;;;;;;;;;;4921738;29;20554;-80
2023/12/15 01:20:27;;;;;;;26.15;13.93;;;;;;;;;;4905571;29;20038;-79
2023/12/15 01:22:53;;;;;;;20.80;13.07;;;;;;;;;;4906058;29;20082;-79
2023/12/15 01:25:19;;;;;;;24.25;12.82;;;;;;;;;;4937859;29;20047;-80
2023/12/15 01:27:45;;;;;;;19.85;12.07;;;;;;;;;;4938036;29;20050;-80
2023/12/15 01:30:11;;;;;;;19.92;12.50;;;;;;;;;;4922260;29;20039;-80
2023/12/15 01:32:38;;;;;;;23.45;12.75;;;;;;;;;;4937702;29;20047;-80
2023/12/15 01:35:04;;;;;;;21.40;13.05;;;;;;;;;;4938035;29;20502;-79
2023/12/15 01:37:30;;;;;;;23.58;12.68;;;;;;;;;;4922564;29;20126;-80
2023/12/15 01:39:57;;;;;;;19.65;12.05;;;;;;;;;;4923275;29;20092;-79
2023/12/15 01:42:23;;;;;;;18.92;12.00;;;;;;;;;;4935936;29;20183;-80
2023/12/15 01:44:49;;;;;;;19.83;11.95;;;;;;;;;;4941157;29;20509;-80
2023/12/15 01:47:18;;;;;;;20.38;11.45;;;;;;;;;;4940780;29;20043;-80
2023/12/15 01:49:45;;;;;;;19.48;11.77;;;;;;;;;;4938912;28;20058;-80
2023/12/15 01:52:11;;;;;;;19.52;11.40;;;;;;;;;;4940548;29;20035;-80
2023/12/15 01:54:37;;;;;;;19.90;11.88;;;;;;;;;;4940949;29;20054;-80
2023/12/15 01:57:03;;;;;;;19.73;11.25;;;;;;;;;;4940396;29;20594;-79
2023/12/15 01:59:41;;;;;;;19.38;11.13;;;;;;;;;;4940725;28;20495;-80
2023/12/15 02:02:07;;;;;;;20.30;11.45;;;;;;;;;;4933626;28;20047;-79
2023/12/15 02:04:33;;;;;;;23.30;10.60;;;;;;;;;;4922920;29;20070;-80
2023/12/15 02:06:59;;;;;;;20.05;10.63;;;;;;;;;;4906141;29;20036;-80
2023/12/15 02:09:25;;;;;;;17.27;10.98;;;;;;;;;;4897571;29;20074;-80
2023/12/15 02:11:51;;;;;;;19.95;10.73;;;;;;;;;;4940320;29;20046;-79
2023/12/15 02:14:17;;;;;;;18.60;9.75;;;;;;;;;;4924422;29;20098;-79
2023/12/15 02:16:44;;;;;;;22.63;10.18;;;;;;;;;;4940171;28;20039;-80
2023/12/15 02:19:10;;;;;;;16.92;9.98;;;;;;;;;;4906461;29;20035;-79
2023/12/15 02:21:36;;;;;;;16.08;10.07;;;;;;;;;;4933438;29;20035;-79
2023/12/15 02:24:02;;;;;;;17.60;10.00;;;;;;;;;;4921257;29;20039;-79
2023/12/15 02:26:28;;;;;;;18.60;10.52;;;;;;;;;;4908848;29;20049;-79
2023/12/15 02:28:54;;;;;;;23.70;9.65;;;;;;;;;;4939814;29;20050;-79
2023/12/15 02:31:21;;;;;;;20.27;10.00;;;;;;;;;;4935922;29;20044;-81
2023/12/15 02:33:48;;;;;;;16.65;8.73;;;;;;;;;;4931183;29;20054;-79
2023/12/15 02:36:21;;;;;;;17.67;9.35;;;;;;;;;;4923512;29;20058;-79
2023/12/15 02:38:47;;;;;;;20.67;9.00;;;;;;;;;;4902903;29;20032;-78
2023/12/15 02:41:13;;;;;;;17.42;9.60;;;;;;;;;;4938161;29;20032;-79
2023/12/15 02:43:39;;;;;;;21.23;9.27;;;;;;;;;;4896639;29;20506;-79
2023/12/15 02:46:06;;;;;;;16.92;9.07;;;;;;;;;;4905552;29;20043;-80
2023/12/15 02:48:32;;;;;;;22.08;9.25;;;;;;;;;;4921425;29;20035;-79
2023/12/15 02:50:58;;;;;;;16.40;8.77;;;;;;;;;;4905456;29;20143;-79
2023/12/15 02:53:25;;;;;;;17.55;9.27;;;;;;;;;;4924831;29;20046;-79
2023/12/15 02:55:51;;;;;;;23.60;9.10;;;;;;;;;;4939942;29;20039;-79
2023/12/15 02:58:18;;;;;;;20.75;8.73;;;;;;;;;;4912856;28;20043;-79
2023/12/15 03:00:44;;;;;;;19.58;8.45;;;;;;;;;;4938101;28;20111;-79
2023/12/15 03:03:10;;;;;;;15.50;8.18;;;;;;;;;;4938183;29;20089;-79
2023/12/15 03:05:36;;;;;;;18.58;8.70;;;;;;;;;;4923245;29;20047;-79
2023/12/15 03:08:02;;;;;;;17.65;7.82;;;;;;;;;;4939320;29;20074;-79
2023/12/15 03:10:29;;;;;;;15.60;7.85;;;;;;;;;;4939267;29;20122;-79
2023/12/15 03:12:55;;;;;;;21.08;8.50;;;;;;;;;;4923031;29;20118;-79
2023/12/15 03:15:21;;;;;;;18.88;8.07;;;;;;;;;;4925414;29;20079;-79
2023/12/15 03:17:47;;;;;;;21.70;8.07;;;;;;;;;;4909506;29;20031;-79
2023/12/15 03:20:13;;;;;;;19.27;7.85;;;;;;;;;;4923049;29;20459;-79
2023/12/15 03:22:39;;;;;;;18.27;7.13;;;;;;;;;;4937832;29;20471;-79
2023/12/15 03:25:05;;;;;;;18.00;7.70;;;;;;;;;;4929296;29;20035;-79
2023/12/15 03:27:31;;;;;;;24.75;8.32;;;;;;;;;;4920135;29;20094;-79
2023/12/15 03:29:58;;;;;;;19.73;8.65;;;;;;;;;;4904854;29;20036;-79
2023/12/15 03:32:24;;;;;;;16.63;8.05;;;;;;;;;;4904857;29;20051;-79
2023/12/15 03:34:50;;;;;;;19.65;7.65;;;;;;;;;;4904606;29;20130;-79
2023/12/15 03:37:16;;;;;;;16.20;7.38;;;;;;;;;;4926578;29;20039;-80
2023/12/15 03:39:43;;;;;;;25.27;7.70;;;;;;;;;;4932101;29;20079;-79
2023/12/15 03:42:09;;;;;;;14.73;7.25;;;;;;;;;;4938515;28;20138;-79
2023/12/15 03:44:39;;;;;;;22.95;7.28;;;;;;;;;;4938839;29;20387;-79
2023/12/15 03:47:09;;;;;;;15.45;7.63;;;;;;;;;;4938752;29;20047;-79
2023/12/15 03:49:38;;;;;;;16.70;7.10;;;;;;;;;;4922062;29;20398;-79
2023/12/15 03:52:04;;;;;;;18.63;7.60;;;;;;;;;;4893068;29;20043;-80
2023/12/15 03:54:30;;;;;;;20.83;6.35;;;;;;;;;;4904208;29;20555;-79
2023/12/15 03:56:56;;;;;;;22.48;6.75;;;;;;;;;;4938075;29;20035;-79
2023/12/15 03:59:23;;;;;;;20.25;5.95;;;;;;;;;;4938558;28;20093;-79
2023/12/15 04:01:49;;;;;;;19.48;6.47;;;;;;;;;;4937266;29;20055;-79
2023/12/15 04:04:15;;;;;;;22.00;6.20;;;;;;;;;;4938956;29;20039;-79
2023/12/15 04:06:41;;;;;;;18.48;6.55;;;;;;;;;;4938310;29;20090;-79
2023/12/15 04:09:09;;;;;;;21.00;6.18;;;;;;;;;;4938493;28;20499;-79
2023/12/15 04:11:36;;;;;;;19.13;6.07;;;;;;;;;;4924008;29;20197;-79
2023/12/15 04:14:03;;;;;;;27.60;6.82;;;;;;;;;;4903484;29;20040;-79
2023/12/15 04:16:29;;;;;;;23.27;6.05;;;;;;;;;;4928004;29;20035;-80
2023/12/15 04:18:55;;;;;;;23.17;6.22;;;;;;;;;;4922915;29;20109;-79
2023/12/15 04:21:21;;;;;;;21.00;7.40;;;;;;;;;;4918094;29;20035;-79
2023/12/15 04:23:47;;;;;;;22.05;7.20;;;;;;;;;;4937911;28;20082;-80
2023/12/15 04:26:13;;;;;;;16.65;6.72;;;;;;;;;;4906407;29;20364;-79
2023/12/15 04:28:39;;;;;;;25.77;7.50;;;;;;;;;;4934532;29;20479;-79
2023/12/15 04:31:05;;;;;;;20.40;6.78;;;;;;;;;;4924782;29;20392;-79
2023/12/15 04:33:31;;;;;;;21.08;6.55;;;;;;;;;;4938309;29;20407;-79
2023/12/15 04:35:57;;;;;;;20.50;5.90;;;;;;;;;;4933140;29;20206;-79
2023/12/15 04:38:23;;;;;;;27.17;6.50;;;;;;;;;;4921206;29;20039;-79
2023/12/15 04:40:50;;;;;;;25.95;6.88;;;;;;;;;;4938001;29;20070;-79
2023/12/15 04:43:16;;;;;;;20.83;5.32;;;;;;;;;;4921265;29;20518;-79
2023/12/15 04:45:42;;;;;;;20.10;5.93;;;;;;;;;;4919883;29;20043;-79
2023/12/15 04:48:08;;;;;;;17.75;6.15;;;;;;;;;;4923242;29;20086;-79
2023/12/15 04:50:34;;;;;;;18.15;5.68;;;;;;;;;;4935788;29;20043;-79
2023/12/15 04:53:00;;;;;;;23.83;6.78;;;;;;;;;;4929464;28;20050;-79
2023/12/15 04:55:26;;;;;;;18.70;5.50;;;;;;;;;;4918818;29;20122;-79
2023/12/15 04:57:53;;;;;;;16.08;4.78;;;;;;;;;;4905865;29;20043;-79
2023/12/15 05:00:20;;;;;;;15.70;4.85;;;;;;;;;;4908445;29;20534;-80
2023/12/15 05:02:47;;;;;;;12.98;4.82;;;;;;;;;;4940895;29;20055;-79
2023/12/15 05:05:13;;;;;;;19.33;5.20;;;;;;;;;;4912909;29;20040;-79
2023/12/15 05:07:39;;;;;;;22.63;5.45;;;;;;;;;;4942177;28;20041;-79
2023/12/15 05:10:05;;;;;;;23.55;5.28;;;;;;;;;;4935617;29;20039;-79
2023/12/15 05:12:35;;;;;;;25.83;4.68;;;;;;;;;;4937460;29;20035;-79
2023/12/15 05:15:04;;;;;;;19.90;4.40;;;;;;;;;;4936881;29;20035;-79
2023/12/15 05:17:31;;;;;;;15.68;5.05;;;;;;;;;;4935887;29;20043;-78
2023/12/15 05:19:57;;;;;;;15.68;3.90;;;;;;;;;;4924127;29;20032;-79
2023/12/15 05:22:23;;;;;;;19.90;4.82;;;;;;;;;;4919651;29;20071;-78
2023/12/15 05:24:51;;;;;;;18.95;4.55;;;;;;;;;;4938392;29;20045;-79
2023/12/15 05:27:18;;;;;;;17.23;4.30;;;;;;;;;;4937661;29;20089;-79
2023/12/15 05:29:45;;;;;;;26.05;4.60;;;;;;;;;;4932806;29;20419;-79
2023/12/15 05:32:12;;;;;;;23.92;4.85;;;;;;;;;;4920733;29;20044;-79
2023/12/15 05:34:38;;;;;;;18.15;4.28;;;;;;;;;;4926862;28;20054;-80
2023/12/15 05:37:04;;;;;;;18.02;5.05;;;;;;;;;;4927199;29;20440;-80
2023/12/15 05:39:30;;;;;;;21.20;5.30;;;;;;;;;;4930881;29;20081;-79
2023/12/15 05:41:56;;;;;;;18.50;5.18;;;;;;;;;;4926413;29;20050;-79
2023/12/15 05:44:22;;;;;;;26.17;5.65;;;;;;;;;;4916589;29;20475;-79
2023/12/15 05:46:49;;;;;;;18.30;4.60;;;;;;;;;;4920675;29;20133;-80
2023/12/15 05:49:15;;;;;;;17.75;4.75;;;;;;;;;;4908944;29;20522;-79
2023/12/15 05:51:47;;;;;;;22.02;5.25;;;;;;;;;;4923005;29;20174;-79
2023/12/15 05:54:13;;;;;;;21.73;4.57;;;;;;;;;;4924167;29;20105;-79
2023/12/15 05:56:39;;;;;;;18.52;4.65;;;;;;;;;;4910433;29;20039;-79
2023/12/15 05:59:05;;;;;;;17.40;5.03;;;;;;;;;;4934696;28;20050;-79
2023/12/15 06:01:31;;;;;;;24.05;4.93;;;;;;;;;;4929503;29;20612;-80
2023/12/15 06:03:57;;;;;;;19.00;4.60;;;;;;;;;;4930991;28;20054;-79
2023/12/15 06:06:23;;;;;;;22.35;4.45;;;;;;;;;;4936270;29;20500;-79
2023/12/15 06:08:50;;;;;;;23.40;4.45;;;;;;;;;;4917987;29;20047;-79
2023/12/15 06:11:17;;;;;;;26.23;5.60;;;;;;;;;;4919625;29;20124;-79
2023/12/15 06:13:43;;;;;;;27.73;4.20;;;;;;;;;;4928383;29;20125;-79
2023/12/15 06:16:16;;;;;;;26.10;5.07;;;;;;;;;;4931130;29;20048;-79
2023/12/15 06:18:42;;;;;;;20.60;4.60;;;;;;;;;;4929068;29;20129;-79
2023/12/15 06:21:09;;;;;;;15.75;5.10;;;;;;;;;;4925641;29;20043;-79
2023/12/15 06:23:35;;;;;;;23.88;4.18;;;;;;;;;;4923741;29;20531;-79
2023/12/15 06:26:01;;;;;;;20.50;5.28;;;;;;;;;;4924779;29;20066;-79
2023/12/15 06:28:27;;;;;;;20.60;4.25;;;;;;;;;;4940451;29;20126;-78
2023/12/15 06:30:53;;;;;;;25.13;4.32;;;;;;;;;;4909077;28;20050;-79
2023/12/15 06:33:20;;;;;;;18.77;4.82;;;;;;;;;;4909920;29;20047;-79
2023/12/15 06:35:46;;;;;;;26.98;5.10;;;;;;;;;;4925779;29;20094;-79
2023/12/15 06:38:12;;;;;;;21.02;5.30;;;;;;;;;;4925106;29;20035;-79
2023/12/15 06:40:40;;;;;;;21.80;4.72;;;;;;;;;;4940356;29;20043;-79
2023/12/15 06:43:06;;;;;;;26.85;4.78;;;;;;;;;;4940019;28;20043;-78
2023/12/15 06:45:32;;;;;;;20.10;5.07;;;;;;;;;;4939055;28;20047;-79
2023/12/15 06:47:58;;;;;;;27.48;5.43;;;;;;;;;;4940053;29;20083;-78
2023/12/15 06:50:24;;;;;;;19.60;4.60;;;;;;;;;;4924166;29;20047;-79
2023/12/15 06:52:51;;;;;;;21.17;4.45;;;;;;;;;;4940209;29;20067;-79
2023/12/15 06:55:17;;;;;;;24.35;5.65;;;;;;;;;;4908454;29;20078;-79
2023/12/15 06:57:43;;;;;;;22.92;4.45;;;;;;;;;;4908220;29;20498;-79
2023/12/15 07:00:10;;;;;;;23.15;5.00;;;;;;;;;;4899745;29;20080;-74
2023/12/15 07:02:36;;;;;;;16.20;4.65;;;;;;;;;;4901778;29;20127;-74
2023/12/15 07:05:02;;;;;;;32.00;5.03;;;;;;;;;;4926504;29;20047;-74
2023/12/15 07:07:28;;;;;;;25.52;6.78;;;;;;;;;;4936716;29;20104;-74
2023/12/15 07:09:54;;;;;;;41.10;6.13;;;;;;;;;;4920545;29;20040;-74
2023/12/15 07:12:20;;;;;;;24.45;5.10;;;;;;;;;;4904861;29;20036;-74
2023/12/15 07:14:46;;;;;;;23.60;5.38;;;;;;;;;;4936617;29;20047;-75
2023/12/15 07:17:15;;;;;;;21.95;5.00;;;;;;;;;;4904683;29;20077;-74
2023/12/15 07:19:41;;;;;;;21.30;4.50;;;;;;;;;;4927496;29;20044;-74
2023/12/15 07:22:07;;;;;;;17.67;3.97;;;;;;;;;;4917221;29;20047;-74
2023/12/15 07:24:34;;;;;;;30.33;5.10;;;;;;;;;;4932456;29;20046;-74
2023/12/15 07:27:00;;;;;;;22.83;4.05;;;;;;;;;;4920424;29;20070;-74
2023/12/15 07:29:26;;;;;;;27.10;4.88;;;;;;;;;;4925898;29;20123;-74
2023/12/15 07:31:52;;;;;;;19.17;3.97;;;;;;;;;;4917279;29;20044;-74
2023/12/15 07:34:18;;;;;;;27.15;4.72;;;;;;;;;;4901476;29;20108;-75
2023/12/15 07:36:44;;;;;;;17.42;4.53;;;;;;;;;;4916914;29;20048;-74
2023/12/15 07:39:10;;;;;;;25.40;5.18;;;;;;;;;;4901441;29;20392;-75
2023/12/15 07:41:39;;;;;;;23.63;4.45;;;;;;;;;;4902171;29;20043;-74
2023/12/15 07:44:06;;;;;;;25.90;4.70;;;;;;;;;;4916856;29;20051;-74
2023/12/15 07:46:33;;;;;;;31.55;4.85;;;;;;;;;;4916841;29;20048;-74
2023/12/15 07:48:59;;;;;;;19.75;4.50;;;;;;;;;;4916659;29;20052;-73
2023/12/15 07:51:25;;;;;;;26.73;4.40;;;;;;;;;;4916714;29;20584;-74
2023/12/15 07:53:51;;;;;;;17.42;3.75;;;;;;;;;;4901268;29;20373;-74
2023/12/15 07:56:21;;;;;;;18.17;3.70;;;;;;;;;;4909081;29;20424;-74
2023/12/15 07:58:49;;;;;;;25.55;4.35;;;;;;;;;;4909682;29;20057;-74
2023/12/15 08:01:16;;;;;;;23.27;4.57;;;;;;;;;;4910028;29;20056;-74
2023/12/15 08:03:42;;;;;;;27.48;5.03;;;;;;;;;;4927328;29;20189;-74
2023/12/15 08:06:08;;;;;;;27.23;4.97;;;;;;;;;;4903343;29;20040;-74
2023/12/15 08:08:34;;;;;;;22.02;4.28;;;;;;;;;;4926771;29;20130;-74
2023/12/15 08:11:00;;;;;;;19.58;4.50;;;;;;;;;;4925675;29;20488;-74
2023/12/15 08:13:26;;;;;;;22.13;4.47;;;;;;;;;;4906786;29;20047;-74
2023/12/15 08:15:52;;;;;;;24.05;3.95;;;;;;;;;;4917637;29;20052;-74
2023/12/15 08:18:19;;;;;;;22.40;4.68;;;;;;;;;;4910831;29;20047;-74
2023/12/15 08:20:47;;;;;;;30.58;4.40;;;;;;;;;;4906940;29;20150;-74
2023/12/15 08:23:13;;;;;;;37.28;5.45;;;;;;;;;;4886372;29;20131;-74
2023/12/15 08:25:39;;;;;;;20.83;4.25;;;;;;;;;;4927598;29;20040;-74
2023/12/15 08:28:05;;;;;;;23.73;4.88;;;;;;;;;;4911499;29;20040;-74
2023/12/15 08:30:31;;;;;;;31.40;4.78;;;;;;;;;;4926103;29;20042;-74
2023/12/15 08:33:01;;;;;;;26.23;4.47;;;;;;;;;;4935311;29;20103;-74
2023/12/15 08:35:27;;;;;;;30.90;4.55;;;;;;;;;;4927977;29;20150;-74
2023/12/15 08:37:55;;;;;;;28.08;4.05;;;;;;;;;;4899889;29;20051;-74
2023/12/15 08:40:21;;;;;;;40.42;4.38;;;;;;;;;;4914593;29;20083;-74
2023/12/15 08:42:47;;;;;;;34.00;5.82;;;;;;;;;;4901304;29;20047;-74
2023/12/15 08:45:13;;;;;;;27.58;4.32;;;;;;;;;;4918335;29;20357;-75
2023/12/15 08:47:39;;;;;;;24.23;3.88;;;;;;;;;;4919114;29;20400;-75
2023/12/15 08:50:05;;;;;;;33.70;4.70;;;;;;;;;;4918400;29;20044;-75
2023/12/15 08:52:32;;;;;;;22.98;3.83;;;;;;;;;;4918676;29;20039;-75
2023/12/15 08:54:58;;;;;;;22.40;4.03;;;;;;;;;;4918656;29;20047;-75
2023/12/15 08:57:24;;;;;;;24.67;5.30;;;;;;;;;;4918650;29;20047;-75
2023/12/15 08:59:50;;;;;;;31.95;5.15;;;;;;;;;;4918587;29;20048;-75
2023/12/15 09:02:16;;;;;;;31.75;5.97;;;;;;;;;;4912737;29;20131;-75
2023/12/15 09:04:42;;;;;;;31.48;5.70;;;;;;;;;;4934777;29;20472;-75
2023/12/15 09:07:08;;;;;;;33.97;6.10;;;;;;;;;;4933934;29;20167;-75
2023/12/15 09:09:35;;;;;;;36.10;6.30;;;;;;;;;;4918863;29;20480;-75
2023/12/15 09:12:01;;;;;;;28.02;5.30;;;;;;;;;;4934065;29;20047;-75
2023/12/15 09:14:29;;;;;;;23.25;5.65;;;;;;;;;;4934495;29;20043;-75
2023/12/15 09:16:55;;;;;;;24.38;4.68;;;;;;;;;;4902732;29;20051;-75
2023/12/15 09:19:21;;;;;;;38.85;6.30;;;;;;;;;;4919365;29;20075;-74
2023/12/15 09:21:48;;;;;;;29.50;5.15;;;;;;;;;;4934724;29;20040;-75
2023/12/15 09:24:14;;;;;;;32.45;5.13;;;;;;;;;;4934292;29;20047;-75
2023/12/15 09:26:42;;;;;;;30.80;5.20;;;;;;;;;;4934250;29;20044;-75
2023/12/15 09:29:09;;;;;;;35.15;5.00;;;;;;;;;;4934551;29;20377;-75
2023/12/15 09:31:35;;;;;;;36.38;5.40;;;;;;;;;;4914458;29;20078;-75
2023/12/15 09:34:01;;;;;;;29.38;4.90;;;;;;;;;;4931528;29;20040;-75
2023/12/15 09:36:27;;;;;;;32.13;6.03;;;;;;;;;;4917980;29;20404;-75
2023/12/15 09:38:54;;;;;;;27.45;5.22;;;;;;;;;;4902652;29;20050;-75
2023/12/15 09:41:20;;;;;;;46.55;5.40;;;;;;;;;;4918446;29;20470;-75
2023/12/15 09:43:46;;;;;;;42.70;6.22;;;;;;;;;;4934267;29;20043;-75
2023/12/15 09:46:12;;;;;;;35.67;5.55;;;;;;;;;;4914329;29;20035;-75
2023/12/15 09:48:39;;;;;;;33.88;4.88;;;;;;;;;;4933042;28;20035;-75
2023/12/15 09:51:25;;;;;;;27.88;5.50;;;;;;;;;;4921740;29;20097;-74
2023/12/15 09:53:52;;;;;;;36.03;4.95;;;;;;;;;;4941007;29;20126;-80
2023/12/15 09:56:18;;;;;;;26.85;4.72;;;;;;;;;;4937768;29;20126;-80
2023/12/15 09:58:45;;;;;;;34.20;5.85;;;;;;;;;;4938125;29;20039;-80
2023/12/15 10:01:11;;;;;;;34.85;4.63;;;;;;;;;;4921419;29;20051;-80
2023/12/15 10:03:37;;;;;;;38.15;5.25;;;;;;;;;;4923064;29;20055;-80
2023/12/15 10:06:04;;;;;;;22.33;5.38;;;;;;;;;;4933791;29;20127;-80
2023/12/15 10:08:40;;;;;;;30.77;4.53;;;;;;;;;;4921912;29;20057;-80
2023/12/15 10:11:07;;;;;;;35.60;4.80;;;;;;;;;;4941807;29;20039;-80
2023/12/15 10:13:33;;;;;;;37.50;5.43;;;;;;;;;;4938844;29;20396;-80
2023/12/15 10:15:59;;;;;;;37.53;5.43;;;;;;;;;;4936384;29;20043;-80
2023/12/15 10:18:25;;;;;;;29.55;5.47;;;;;;;;;;4941823;29;20043;-80
2023/12/15 10:20:51;;;;;;;32.15;5.22;;;;;;;;;;4940233;29;20051;-79
2023/12/15 10:23:25;;;;;;;37.72;5.93;;;;;;;;;;4927700;29;20086;-80
2023/12/15 10:25:53;;;;;;;25.77;4.93;;;;;;;;;;4921458;29;20392;-79
2023/12/15 10:28:19;;;;;;;31.88;5.47;;;;;;;;;;4915518;28;20489;-80
2023/12/15 10:30:46;;;;;;;37.25;6.00;;;;;;;;;;4900668;29;20083;-80
2023/12/15 10:33:16;;;;;;;34.35;5.53;;;;;;;;;;4934363;29;20050;-80
2023/12/15 10:35:43;;;;;;;35.47;5.85;;;;;;;;;;4936767;29;20047;-80
2023/12/15 10:38:09;;;;;;;35.75;5.28;;;;;;;;;;4928344;29;20108;-80
2023/12/15 10:40:35;;;;;;;35.40;5.95;;;;;;;;;;4904128;29;20039;-80
2023/12/15 10:43:02;;;;;;;28.73;5.05;;;;;;;;;;4929422;28;20102;-79
2023/12/15 10:45:28;;;;;;;29.25;4.63;;;;;;;;;;4932768;29;20036;-79
2023/12/15 10:47:57;;;;;;;44.92;5.78;;;;;;;;;;4920028;29;20063;-79
2023/12/15 10:50:24;;;;;;;35.58;5.63;;;;;;;;;;4950788;29;20047;-80
2023/12/15 10:52:52;;;;;;;32.75;5.38;;;;;;;;;;4914579;29;20032;-79
2023/12/15 10:55:25;;;;;;;31.45;5.25;;;;;;;;;;4939503;29;20495;-80
2023/12/15 10:57:51;;;;;;;39.30;5.70;;;;;;;;;;4935578;29;20099;-80
2023/12/15 11:00:18;;;;;;;39.80;6.57;;;;;;;;;;4928237;29;20044;-80
2023/12/15 11:02:45;;;;;;;32.25;5.80;;;;;;;;;;4920705;29;20051;-80
2023/12/15 11:05:11;;;;;;;27.45;4.68;;;;;;;;;;4934287;29;20040;-79
2023/12/15 11:07:39;;;;;;;36.00;5.28;;;;;;;;;;4889579;29;20433;-80
2023/12/15 11:10:05;;;;;;;37.67;5.60;;;;;;;;;;4921220;28;20039;-79
2023/12/15 11:12:39;;;;;;;34.13;5.10;;;;;;;;;;4923208;29;20039;-80
2023/12/15 11:15:20;;;;;;;42.60;6.45;;;;;;;;;;4914550;29;20178;-80
2023/12/15 11:17:50;;;;;;;43.92;6.85;;;;;;;;;;4940025;29;20043;-80
2023/12/15 11:20:19;;;;;;;41.20;5.70;;;;;;;;;;4900618;29;20035;-80
2023/12/15 11:22:49;;;;;;;52.30;6.35;;;;;;;;;;4932189;29;20083;-80
2023/12/15 11:25:25;;;;;;;38.08;5.53;;;;;;;;;;4942648;28;20126;-81
2023/12/15 11:28:01;;;;;;;34.00;6.10;;;;;;;;;;4948764;29;20460;-81
2023/12/15 11:30:28;;;;;;;36.40;5.30;;;;;;;;;;4913223;29;20110;-80
2023/12/15 11:32:55;;;;;;;36.13;5.70;;;;;;;;;;4916576;29;20091;-81
2023/12/15 11:35:47;;;;;;;31.00;5.10;;;;;;;;;;4928415;29;20105;-81
2023/12/15 11:38:13;;;;;;;41.25;5.25;;;;;;;;;;4909615;29;20046;-81
2023/12/15 11:40:41;;;;;;;27.60;4.78;;;;;;;;;;4924095;29;20050;-82
2023/12/15 11:43:07;;;;;;;37.03;5.60;;;;;;;;;;4896686;29;20036;-80
2023/12/15 11:45:34;;;;;;;26.58;5.22;;;;;;;;;;4926391;29;20201;-80
2023/12/15 11:48:00;;;;;;;33.95;5.25;;;;;;;;;;4929064;29;20079;-81
2023/12/15 11:50:29;;;;;;;37.70;6.50;;;;;;;;;;4941587;29;20051;-80
2023/12/15 11:52:56;;;;;;;29.48;4.15;;;;;;;;;;4944643;29;20035;-81
2023/12/15 11:55:22;;;;;;;35.92;5.55;;;;;;;;;;4934251;29;20399;-80
2023/12/15 11:57:48;;;;;;;24.35;4.60;;;;;;;;;;4910282;29;20036;-80
2023/12/15 12:00:15;;;;;;;23.40;5.10;;;;;;;;;;4925935;29;20055;-80
2023/12/15 12:02:41;;;;;;;33.80;5.15;;;;;;;;;;4896431;29;20416;-80
2023/12/15 12:05:08;;;;;;;32.85;5.50;;;;;;;;;;4932636;29;20044;-81
2023/12/15 12:07:34;;;;;;;35.95;6.20;;;;;;;;;;4891963;29;20050;-80
2023/12/15 12:10:05;;;;;;;29.85;4.72;;;;;;;;;;4925315;29;20071;-80
2023/12/15 12:12:37;;;;;;;30.88;4.88;;;;;;;;;;4901926;28;20122;-80
2023/12/15 12:15:05;;;;;;;36.55;5.03;;;;;;;;;;4931271;29;20127;-80
2023/12/15 12:17:32;;;;;;;23.92;4.95;;;;;;;;;;4930460;29;20050;-81
2023/12/15 12:20:09;;;;;;;30.88;5.15;;;;;;;;;;4922320;29;20039;-81
2023/12/15 12:22:38;;;;;;;28.60;4.32;;;;;;;;;;4921919;29;20043;-80
2023/12/15 12:25:05;;;;;;;29.77;4.20;;;;;;;;;;4937550;28;20074;-80
2023/12/15 12:27:32;;;;;;;25.95;5.43;;;;;;;;;;4942942;29;20043;-78
2023/12/15 12:29:59;;;;;;;23.50;5.05;;;;;;;;;;4933526;29;20046;-80
2023/12/15 12:32:25;;;;;;;29.33;4.45;;;;;;;;;;4932164;29;20039;-80
2023/12/15 12:34:52;;;;;;;29.23;5.45;;;;;;;;;;4930463;29;20387;-80
2023/12/15 12:37:18;;;;;;;27.85;4.18;;;;;;;;;;4909489;29;20071;-80
2023/12/15 12:39:45;;;;;;;23.63;5.20;;;;;;;;;;4904678;29;20858;-81
2023/12/15 12:42:11;;;;;;;24.52;4.25;;;;;;;;;;4941964;29;20067;-81
2023/12/15 12:44:39;;;;;;;31.98;5.20;;;;;;;;;;4922019;29;20040;-80
2023/12/15 12:47:05;;;;;;;22.17;4.32;;;;;;;;;;4903493;29;20099;-80
2023/12/15 12:49:31;;;;;;;22.98;3.50;;;;;;;;;;4909023;29;20141;-74
2023/12/15 12:51:57;;;;;;;16.80;3.65;;;;;;;;;;4930329;29;20042;-74
2023/12/15 12:54:23;;;;;;;25.80;4.05;;;;;;;;;;4921274;29;20074;-74
2023/12/15 12:56:49;;;;;;;24.27;3.95;;;;;;;;;;4943897;29;20043;-74
2023/12/15 12:59:17;;;;;;;15.82;4.13;;;;;;;;;;4933328;29;20039;-74
2023/12/15 13:01:43;;;;;;;22.48;3.72;;;;;;;;;;4899495;29;20052;-74
2023/12/15 13:04:10;;;;;;;23.50;3.65;;;;;;;;;;4932338;29;20074;-74
2023/12/15 13:06:38;;;;;;;17.15;3.97;;;;;;;;;;4930874;29;20050;-73
2023/12/15 13:09:04;;;;;;;19.17;3.42;;;;;;;;;;4925705;29;20046;-74
2023/12/15 13:11:30;;;;;;;20.60;4.45;;;;;;;;;;4934925;29;20051;-74
2023/12/15 13:13:56;;;;;;;26.05;3.95;;;;;;;;;;4937792;29;20039;-74
2023/12/15 13:16:22;;;;;;;20.73;4.93;;;;;;;;;;4933941;29;20499;-74
2023/12/15 13:18:49;;;;;;;17.85;3.70;;;;;;;;;;4918757;29;20352;-74
2023/12/15 13:21:15;;;;;;;31.02;5.43;;;;;;;;;;4930741;29;20039;-74
2023/12/15 13:23:41;;;;;;;21.92;4.40;;;;;;;;;;4918701;29;20040;-74
2023/12/15 13:26:08;;;;;;;21.60;4.75;;;;;;;;;;4918505;29;20091;-74
2023/12/15 13:28:36;;;;;;;17.05;4.88;;;;;;;;;;4918589;29;20048;-74
2023/12/15 13:31:04;;;;;;;14.45;3.85;;;;;;;;;;4927271;29;20046;-74
2023/12/15 13:33:31;;;;;;;16.95;3.00;;;;;;;;;;4934324;29;20488;-74
2023/12/15 13:35:57;;;;;;;23.05;3.42;;;;;;;;;;4918753;29;20504;-74
2023/12/15 13:38:24;;;;;;;20.20;3.40;;;;;;;;;;4934324;29;20515;-74
2023/12/15 13:40:50;;;;;;;22.00;3.60;;;;;;;;;;4918222;29;20050;-74
2023/12/15 13:43:16;;;;;;;21.77;3.38;;;;;;;;;;4934171;29;20488;-74
2023/12/15 13:45:42;;;;;;;16.58;3.42;;;;;;;;;;4918434;29;20054;-74
2023/12/15 13:48:09;;;;;;;19.88;4.03;;;;;;;;;;4933762;29;20040;-73
2023/12/15 13:50:35;;;;;;;19.08;3.20;;;;;;;;;;4933878;29;20050;-74
2023/12/15 13:53:02;;;;;;;16.20;3.60;;;;;;;;;;4902624;29;20048;-74
2023/12/15 13:55:29;;;;;;;25.10;3.83;;;;;;;;;;4918495;29;20059;-74
2023/12/15 13:57:55;;;;;;;28.95;4.57;;;;;;;;;;4918222;29;20069;-74
2023/12/15 14:00:24;;;;;;;23.38;3.67;;;;;;;;;;4933421;29;20039;-74
2023/12/15 14:02:51;;;;;;;21.08;4.03;;;;;;;;;;4918178;29;20048;-74
2023/12/15 14:05:17;;;;;;;23.83;4.25;;;;;;;;;;4917928;29;20476;-74
2023/12/15 14:07:43;;;;;;;18.50;4.60;;;;;;;;;;4914831;29;20052;-74
2023/12/15 14:10:09;;;;;;;20.58;3.55;;;;;;;;;;4917237;29;20079;-74
2023/12/15 14:12:35;;;;;;;31.55;4.85;;;;;;;;;;4917905;29;20055;-74
2023/12/15 14:15:02;;;;;;;14.57;3.90;;;;;;;;;;4918426;29;20043;-74
2023/12/15 14:17:28;;;;;;;23.75;4.13;;;;;;;;;;4917738;29;20043;-74
2023/12/15 14:19:54;;;;;;;25.35;3.58;;;;;;;;;;4887045;29;20427;-74
2023/12/15 14:22:21;;;;;;;22.63;4.38;;;;;;;;;;4909939;29;20040;-74
2023/12/15 14:24:47;;;;;;;20.33;4.15;;;;;;;;;;4915115;29;20156;-74
2023/12/15 14:27:14;;;;;;;20.40;4.32;;;;;;;;;;4901602;29;20040;-74
2023/12/15 14:29:40;;;;;;;25.02;4.53;;;;;;;;;;4917956;29;20094;-74
2023/12/15 14:32:07;;;;;;;24.40;4.07;;;;;;;;;;4918023;29;20036;-74
2023/12/15 14:34:33;;;;;;;23.63;4.95;;;;;;;;;;4921395;29;20090;-74
2023/12/15 14:36:59;;;;;;;23.38;4.03;;;;;;;;;;4921018;29;20040;-74
2023/12/15 14:39:26;;;;;;;24.77;5.10;;;;;;;;;;4921315;29;20074;-74
2023/12/15 14:41:53;;;;;;;26.83;4.32;;;;;;;;;;4921022;29;20039;-74
2023/12/15 14:44:19;;;;;;;19.52;4.90;;;;;;;;;;4905835;29;20153;-74
2023/12/15 14:46:45;;;;;;;23.70;4.95;;;;;;;;;;4920921;29;20484;-74
2023/12/15 14:49:11;;;;;;;21.85;4.35;;;;;;;;;;4921193;29;20496;-74
2023/12/15 14:51:37;;;;;;;28.17;5.22;;;;;;;;;;4912535;29;20078;-74
2023/12/15 14:54:03;;;;;;;21.27;4.70;;;;;;;;;;4902236;29;20040;-74
2023/12/15 14:56:30;;;;;;;19.15;4.30;;;;;;;;;;4902239;29;20562;-74
2023/12/15 14:58:56;;;;;;;23.55;4.72;;;;;;;;;;4903293;29;20043;-74
2023/12/15 15:01:22;;;;;;;25.70;4.60;;;;;;;;;;4934216;29;20180;-74
2023/12/15 15:03:48;;;;;;;19.30;4.90;;;;;;;;;;4917504;29;20048;-74
2023/12/15 15:06:16;;;;;;;22.90;4.28;;;;;;;;;;4920621;29;20404;-74
2023/12/15 15:08:42;;;;;;;18.33;4.88;;;;;;;;;;4920558;29;20055;-74